Time;durP1;ratioP1;P1;durP2;ratioP2;P2;SDS_P1;SDS_P2;PMS_P1;PMS_P2;Temp;Humidity;BMP_temperature;BMP_pressure;BME280_temperature;BME280_humidity;BME280_pressure;Samples;Min_cycle;Max_cycle;Signal;HPM_P1;HPM_P2
2023/12/29 00:01:34;;;;;;;3.65;2.00;;;10.10;99.90;;;;;;4908515;29;20020;-72
2023/12/29 00:04:01;;;;;;;4.22;1.80;;;10.10;99.90;;;;;;4908311;29;20099;-72
2023/12/29 00:06:26;;;;;;;2.80;1.83;;;10.20;99.90;;;;;;4908285;29;20037;-73
2023/12/29 00:08:55;;;;;;;2.67;1.45;;;10.20;99.90;;;;;;4908165;29;20039;-74
2023/12/29 00:11:21;;;;;;;2.65;1.50;;;10.20;99.90;;;;;;4908211;29;20369;-73
2023/12/29 00:13:47;;;;;;;3.63;1.73;;;10.20;99.90;;;;;;4907704;29;20028;-72
2023/12/29 00:16:13;;;;;;;2.40;1.33;;;10.20;99.90;;;;;;4908346;29;20025;-72
2023/12/29 00:18:38;;;;;;;2.88;1.65;;;10.20;99.90;;;;;;4907757;29;20104;-72
2023/12/29 00:21:05;;;;;;;2.92;1.60;;;10.20;99.90;;;;;;4908230;29;20043;-71
2023/12/29 00:23:31;;;;;;;4.38;1.73;;;10.30;99.90;;;;;;4908144;29;20024;-72
2023/12/29 00:25:57;;;;;;;3.90;1.63;;;10.40;99.90;;;;;;4907613;29;20036;-73
2023/12/29 00:28:22;;;;;;;3.42;1.48;;;10.40;99.90;;;;;;4907413;29;20043;-72
2023/12/29 00:30:48;;;;;;;3.83;1.77;;;10.40;99.90;;;;;;4907401;29;20083;-72
2023/12/29 00:33:14;;;;;;;3.45;1.75;;;10.20;99.90;;;;;;4891187;29;20047;-74
2023/12/29 00:35:40;;;;;;;3.80;1.95;;;10.20;99.90;;;;;;4906220;29;20100;-73
2023/12/29 00:38:06;;;;;;;2.90;1.60;;;10.20;99.90;;;;;;4908116;29;20029;-73
2023/12/29 00:40:35;;;;;;;4.00;1.65;;;10.10;99.90;;;;;;4907942;29;20043;-72
2023/12/29 00:43:01;;;;;;;2.97;1.98;;;10.10;99.90;;;;;;4906733;29;20029;-73
2023/12/29 00:45:32;;;;;;;2.88;1.52;;;10.20;99.90;;;;;;4907939;29;20029;-73
2023/12/29 00:48:02;;;;;;;3.08;1.60;;;10.20;99.90;;;;;;4906357;29;20063;-73
2023/12/29 00:50:28;;;;;;;2.63;1.50;;;10.20;99.90;;;;;;4907870;29;20049;-75
2023/12/29 00:52:54;;;;;;;3.30;1.80;;;10.20;99.90;;;;;;4906877;29;20113;-75
2023/12/29 00:55:20;;;;;;;2.80;1.77;;;10.20;99.90;;;;;;4906541;29;20076;-75
2023/12/29 00:57:46;;;;;;;4.43;1.33;;;10.30;99.90;;;;;;4906984;29;20032;-72
2023/12/29 01:00:12;;;;;;;2.70;1.70;;;10.30;99.90;;;;;;4890877;29;20028;-73
2023/12/29 01:02:39;;;;;;;2.97;1.70;;;10.30;99.90;;;;;;4906547;29;20036;-73
2023/12/29 01:05:05;;;;;;;3.55;1.80;;;10.30;99.90;;;;;;4890775;29;20028;-74
2023/12/29 01:07:31;;;;;;;3.13;1.52;;;10.30;99.90;;;;;;4906193;29;20256;-72
2023/12/29 01:09:58;;;;;;;2.92;1.50;;;10.30;99.90;;;;;;4906749;29;20040;-72
2023/12/29 01:12:24;;;;;;;3.03;1.63;;;10.30;99.90;;;;;;4906254;29;20040;-73
2023/12/29 01:14:50;;;;;;;3.17;1.50;;;10.30;99.90;;;;;;4906526;29;20075;-74
2023/12/29 01:17:16;;;;;;;2.60;1.67;;;10.30;99.90;;;;;;4906058;29;20343;-74
2023/12/29 01:19:41;;;;;;;4.13;2.03;;;10.40;99.90;;;;;;4906265;29;20039;-74
2023/12/29 01:22:07;;;;;;;4.28;1.80;;;10.40;99.90;;;;;;4907213;29;20020;-71
2023/12/29 01:24:33;;;;;;;2.95;1.63;;;10.30;99.90;;;;;;4890520;29;20056;-73
2023/12/29 01:26:59;;;;;;;4.03;1.67;;;10.30;99.90;;;;;;4907024;29;20103;-73
2023/12/29 01:29:25;;;;;;;2.97;1.73;;;10.30;99.90;;;;;;4890209;29;20029;-73
2023/12/29 01:31:50;;;;;;;4.38;2.00;;;10.20;99.90;;;;;;4906704;29;20072;-72
2023/12/29 01:34:16;;;;;;;3.15;1.75;;;10.10;99.90;;;;;;4907190;29;20037;-72
2023/12/29 01:36:42;;;;;;;3.15;1.98;;;10.10;99.90;;;;;;4906925;29;20184;-72
2023/12/29 01:39:08;;;;;;;4.63;1.90;;;10.20;99.90;;;;;;4906546;29;20064;-71
2023/12/29 01:41:33;;;;;;;3.22;1.75;;;10.30;99.90;;;;;;4906892;29;20108;-71
2023/12/29 01:43:59;;;;;;;4.10;1.80;;;10.30;99.90;;;;;;4906567;29;20254;-72
2023/12/29 01:46:27;;;;;;;4.63;2.03;;;10.40;99.90;;;;;;4907033;29;20215;-70
2023/12/29 01:48:53;;;;;;;;;;;10.40;99.90;;;;;;4905706;29;20092;-73
2023/12/29 01:51:25;;;;;;;5.45;3.03;;;10.40;99.90;;;;;;4907095;29;19907;-75
2023/12/29 01:53:55;;;;;;;3.10;1.77;;;10.50;99.90;;;;;;4889352;29;20284;-71
2023/12/29 01:56:21;;;;;;;3.65;2.20;;;10.50;99.90;;;;;;4906884;29;20049;-72
2023/12/29 01:58:49;;;;;;;6.47;2.08;;;10.50;99.90;;;;;;4905147;29;20021;-71
2023/12/29 02:01:16;;;;;;;3.83;2.20;;;10.60;99.80;;;;;;4905669;29;20330;-72
2023/12/29 02:03:43;;;;;;;5.57;2.15;;;10.60;99.70;;;;;;4906074;29;20052;-76
2023/12/29 02:06:09;;;;;;;5.35;2.38;;;10.60;99.70;;;;;;4906577;29;20095;-72
2023/12/29 02:08:39;;;;;;;4.07;2.15;;;10.60;99.80;;;;;;4905541;29;20099;-73
2023/12/29 02:11:04;;;;;;;4.63;1.98;;;10.50;99.80;;;;;;4905635;29;20059;-72
2023/12/29 02:13:31;;;;;;;3.80;2.22;;;10.50;99.90;;;;;;4906492;29;20326;-72
2023/12/29 02:16:06;;;;;;;3.80;2.05;;;10.50;99.90;;;;;;4889504;29;20210;-73
2023/12/29 02:18:34;;;;;;;4.82;2.20;;;10.40;99.90;;;;;;4906554;29;20044;-72
2023/12/29 02:21:02;;;;;;;3.58;1.75;;;10.50;99.90;;;;;;4906141;29;20064;-72
2023/12/29 02:23:28;;;;;;;;;;;10.50;99.90;;;;;;4907098;29;20059;-72
2023/12/29 02:26:01;;;;;;;3.67;1.90;;;10.50;99.90;;;;;;4905807;29;19951;-73
2023/12/29 02:28:27;;;;;;;4.50;2.10;;;10.60;99.90;;;;;;4906510;29;20047;-71
2023/12/29 02:31:01;;;;;;;3.95;2.45;;;10.60;99.90;;;;;;4905973;29;20051;-72
2023/12/29 02:33:28;;;;;;;3.45;2.03;;;10.60;99.80;;;;;;4906649;29;20023;-71
2023/12/29 02:35:59;;;;;;;5.25;2.03;;;10.60;99.80;;;;;;4905772;29;20068;-73
2023/12/29 02:38:28;;;;;;;5.00;2.20;;;10.60;99.80;;;;;;4906414;29;20041;-73
2023/12/29 02:40:56;;;;;;;8.05;2.13;;;10.70;99.70;;;;;;4906007;29;20044;-72
2023/12/29 02:43:21;;;;;;;5.05;2.40;;;10.60;99.60;;;;;;4906869;29;20317;-72
2023/12/29 02:45:47;;;;;;;4.05;2.22;;;10.60;99.60;;;;;;4904690;29;20032;-73
2023/12/29 02:48:13;;;;;;;3.15;2.00;;;10.60;99.70;;;;;;4906623;29;20091;-74
2023/12/29 02:50:39;;;;;;;4.07;2.20;;;10.60;99.60;;;;;;4906041;29;20043;-73
2023/12/29 02:53:06;;;;;;;6.50;2.13;;;10.60;99.70;;;;;;4909933;29;20072;-72
2023/12/29 02:55:32;;;;;;;2.70;1.90;;;10.60;99.80;;;;;;4908530;29;20029;-73
2023/12/29 02:57:57;;;;;;;4.05;2.05;;;10.60;99.90;;;;;;4909104;29;20044;-73
2023/12/29 03:00:23;;;;;;;3.78;2.30;;;10.50;99.90;;;;;;4909750;29;20032;-72
2023/12/29 03:02:49;;;;;;;4.55;2.15;;;10.50;99.90;;;;;;4908477;29;20312;-71
2023/12/29 03:05:15;;;;;;;5.50;2.03;;;10.40;99.90;;;;;;4909506;29;20029;-74
2023/12/29 03:07:42;;;;;;;4.97;2.20;;;10.40;99.90;;;;;;4908722;29;20041;-71
2023/12/29 03:10:08;;;;;;;4.28;2.40;;;10.40;99.90;;;;;;4909576;29;20040;-73
2023/12/29 03:12:34;;;;;;;3.03;2.30;;;10.40;99.90;;;;;;4892716;29;20040;-73
2023/12/29 03:15:00;;;;;;;3.35;2.13;;;10.40;99.90;;;;;;4909075;29;20072;-74
2023/12/29 03:17:26;;;;;;;5.13;2.45;;;10.30;99.90;;;;;;4892710;29;20029;-72
2023/12/29 03:19:52;;;;;;;3.58;2.08;;;10.30;99.90;;;;;;4908786;29;20037;-72
2023/12/29 03:22:18;;;;;;;4.32;2.30;;;10.20;99.90;;;;;;4909476;29;20072;-71
2023/12/29 03:24:44;;;;;;;4.00;2.40;;;10.20;99.90;;;;;;4908764;29;20107;-76
2023/12/29 03:27:10;;;;;;;3.38;2.03;;;10.00;99.90;;;;;;4909029;29;20039;-74
2023/12/29 03:29:36;;;;;;;4.53;2.25;;;10.00;99.90;;;;;;4909069;29;20024;-72
2023/12/29 03:32:02;;;;;;;4.22;2.75;;;10.00;99.90;;;;;;4909166;29;20059;-71
2023/12/29 03:34:28;;;;;;;3.60;2.20;;;10.00;99.90;;;;;;4909101;29;20032;-73
2023/12/29 03:36:54;;;;;;;3.13;2.10;;;10.00;99.90;;;;;;4907562;29;20025;-73
2023/12/29 03:39:20;;;;;;;4.13;2.47;;;10.00;99.90;;;;;;4908952;29;20104;-71
2023/12/29 03:41:45;;;;;;;3.85;2.42;;;10.00;99.90;;;;;;4908506;29;20035;-74
2023/12/29 03:44:11;;;;;;;4.22;2.40;;;9.90;99.90;;;;;;4909225;29;20366;-71
2023/12/29 03:46:37;;;;;;;6.85;2.50;;;9.80;99.90;;;;;;4908477;29;20211;-72
2023/12/29 03:49:03;;;;;;;3.72;2.55;;;9.70;99.90;;;;;;4908657;29;20036;-74
2023/12/29 03:51:29;;;;;;;4.95;1.98;;;9.70;99.90;;;;;;4908662;29;20032;-72
2023/12/29 03:53:54;;;;;;;4.22;2.53;;;9.60;99.90;;;;;;4908258;29;20047;-72
2023/12/29 03:56:20;;;;;;;4.22;2.00;;;9.60;99.90;;;;;;4908822;29;20036;-72
2023/12/29 03:58:46;;;;;;;4.13;2.00;;;9.60;99.90;;;;;;4908087;29;20299;-71
2023/12/29 04:01:13;;;;;;;4.78;1.95;;;9.60;99.90;;;;;;4907401;29;20040;-72
2023/12/29 04:03:39;;;;;;;3.72;2.30;;;9.60;99.90;;;;;;4898180;29;20296;-74
2023/12/29 04:06:06;;;;;;;3.30;1.98;;;9.50;99.90;;;;;;4889989;29;20037;-73
2023/12/29 04:08:32;;;;;;;3.80;2.13;;;9.40;99.90;;;;;;4889694;29;20081;-76
2023/12/29 04:10:58;;;;;;;3.80;2.10;;;9.30;99.90;;;;;;4889173;29;20045;-72
2023/12/29 04:13:24;;;;;;;4.15;2.03;;;9.30;99.90;;;;;;4888680;29;20021;-73
2023/12/29 04:15:49;;;;;;;4.47;2.22;;;9.30;99.90;;;;;;4872268;29;20107;-72
2023/12/29 04:18:15;;;;;;;4.32;2.20;;;9.40;99.90;;;;;;4888539;29;20064;-73
2023/12/29 04:20:41;;;;;;;3.20;1.90;;;9.40;99.90;;;;;;4888801;29;20016;-72
2023/12/29 04:23:07;;;;;;;3.17;1.75;;;9.60;99.90;;;;;;4889709;29;20101;-73
2023/12/29 04:25:33;;;;;;;3.03;1.90;;;9.70;99.90;;;;;;4889302;29;20335;-71
2023/12/29 04:27:59;;;;;;;4.07;1.73;;;9.70;99.90;;;;;;4889032;29;20052;-75
2023/12/29 04:30:25;;;;;;;3.50;1.50;;;9.70;99.90;;;;;;4889340;29;20060;-74
2023/12/29 04:32:51;;;;;;;4.15;1.67;;;9.60;99.90;;;;;;4888426;29;20299;-72
2023/12/29 04:35:18;;;;;;;3.40;1.83;;;9.70;99.90;;;;;;4872409;29;20021;-72
2023/12/29 04:37:45;;;;;;;4.22;1.90;;;9.60;99.90;;;;;;4887280;29;20150;-72
2023/12/29 04:40:11;;;;;;;3.35;1.98;;;9.60;99.90;;;;;;4887948;29;20037;-72
2023/12/29 04:42:36;;;;;;;3.50;1.85;;;9.50;99.90;;;;;;4888960;29;20127;-74
2023/12/29 04:45:04;;;;;;;2.90;1.88;;;9.50;99.90;;;;;;4888953;29;20065;-73
2023/12/29 04:47:29;;;;;;;3.67;2.03;;;9.50;99.90;;;;;;4887705;29;20213;-73
2023/12/29 04:49:55;;;;;;;4.47;2.08;;;9.50;99.90;;;;;;4888282;29;20067;-72
2023/12/29 04:52:21;;;;;;;2.95;1.58;;;9.50;99.90;;;;;;4888878;29;20041;-73
2023/12/29 04:54:46;;;;;;;2.75;1.73;;;9.50;99.90;;;;;;4888216;29;20252;-72
2023/12/29 04:57:12;;;;;;;3.60;1.98;;;9.60;99.90;;;;;;4888867;29;20208;-72
2023/12/29 04:59:38;;;;;;;3.08;1.75;;;9.60;99.90;;;;;;4888005;29;20041;-72
2023/12/29 05:02:03;;;;;;;3.75;1.90;;;9.70;99.90;;;;;;4888629;29;20037;-71
2023/12/29 05:04:29;;;;;;;4.03;2.00;;;9.80;99.90;;;;;;4902613;29;20080;-72
2023/12/29 05:06:54;;;;;;;3.50;1.92;;;9.70;99.90;;;;;;4905614;29;20040;-72
2023/12/29 05:09:20;;;;;;;7.45;2.20;;;9.70;99.90;;;;;;4907140;29;20056;-73
2023/12/29 05:11:46;;;;;;;3.70;1.95;;;9.80;99.90;;;;;;4906258;29;20039;-71
2023/12/29 05:14:12;;;;;;;3.47;1.85;;;9.70;99.90;;;;;;4907146;29;20267;-71
2023/12/29 05:16:38;;;;;;;3.17;1.80;;;9.80;99.90;;;;;;4906512;29;20380;-73
2023/12/29 05:19:03;;;;;;;3.13;1.92;;;9.90;99.90;;;;;;4907159;29;20056;-72
2023/12/29 05:21:30;;;;;;;2.72;1.65;;;9.90;99.90;;;;;;4905824;29;20040;-72
2023/12/29 05:23:56;;;;;;;3.65;1.50;;;9.90;99.90;;;;;;4906419;29;20032;-73
2023/12/29 05:26:22;;;;;;;3.60;1.92;;;10.00;99.90;;;;;;4907043;29;20020;-73
2023/12/29 05:28:48;;;;;;;3.55;2.00;;;10.00;99.90;;;;;;4906267;29;20111;-75
2023/12/29 05:31:13;;;;;;;3.42;1.77;;;9.90;99.90;;;;;;4907118;29;20063;-72
2023/12/29 05:33:39;;;;;;;2.58;1.60;;;9.90;99.90;;;;;;4905259;29;20047;-74
2023/12/29 05:36:09;;;;;;;3.35;1.92;;;9.90;99.90;;;;;;4906955;29;20039;-72
2023/12/29 05:38:35;;;;;;;3.67;1.95;;;9.90;99.90;;;;;;4906665;29;20319;-73
2023/12/29 05:41:04;;;;;;;3.40;1.85;;;9.90;99.90;;;;;;4906453;29;20028;-73
2023/12/29 05:43:32;;;;;;;3.83;2.05;;;9.80;99.90;;;;;;4906614;29;20040;-71
2023/12/29 05:45:58;;;;;;;3.60;2.03;;;9.70;99.90;;;;;;4906340;29;20405;-71
2023/12/29 05:48:24;;;;;;;3.20;2.10;;;9.70;99.90;;;;;;4906937;29;20075;-71
2023/12/29 05:50:53;;;;;;;4.47;1.90;;;9.60;99.90;;;;;;4904869;29;20036;-73
2023/12/29 05:53:19;;;;;;;4.00;2.03;;;9.60;99.90;;;;;;4906560;29;20040;-71
2023/12/29 05:55:45;;;;;;;4.25;2.10;;;9.70;99.90;;;;;;4906143;29;20307;-72
2023/12/29 05:58:11;;;;;;;4.28;2.28;;;9.60;99.90;;;;;;4906724;29;20036;-73
2023/12/29 06:00:39;;;;;;;3.10;1.75;;;9.60;99.90;;;;;;4905389;29;20112;-74
2023/12/29 06:03:05;;;;;;;3.05;2.03;;;9.60;99.90;;;;;;4906348;29;20056;-72
2023/12/29 06:05:31;;;;;;;4.72;2.10;;;9.60;99.90;;;;;;4906435;29;20298;-72
2023/12/29 06:07:57;;;;;;;3.88;2.10;;;9.60;99.90;;;;;;4906189;29;20256;-73
2023/12/29 06:10:23;;;;;;;4.05;2.00;;;9.60;99.90;;;;;;4906478;29;20047;-71
2023/12/29 06:12:49;;;;;;;3.88;1.98;;;9.60;99.90;;;;;;4905831;29;20063;-72
2023/12/29 06:15:15;;;;;;;4.18;2.45;;;9.60;99.90;;;;;;4906710;29;20032;-72
2023/12/29 06:17:41;;;;;;;4.22;2.20;;;9.50;99.90;;;;;;4905082;29;20028;-76
2023/12/29 06:20:09;;;;;;;3.08;2.10;;;9.50;99.90;;;;;;4906767;29;20048;-72
2023/12/29 06:22:41;;;;;;;4.25;2.40;;;9.50;99.90;;;;;;4906631;29;20044;-72
2023/12/29 06:25:11;;;;;;;3.03;1.98;;;9.50;99.90;;;;;;4907528;29;20055;-72
2023/12/29 06:27:37;;;;;;;3.72;2.00;;;9.50;99.90;;;;;;4910108;29;20223;-73
2023/12/29 06:30:07;;;;;;;3.78;1.83;;;9.50;99.90;;;;;;4909988;29;20227;-71
2023/12/29 06:32:33;;;;;;;3.42;1.90;;;9.40;99.90;;;;;;4910208;29;20045;-71
2023/12/29 06:34:59;;;;;;;3.08;1.88;;;9.30;99.90;;;;;;4892790;29;20340;-72
2023/12/29 06:37:25;;;;;;;3.20;1.95;;;9.30;99.90;;;;;;4909976;29;20032;-72
2023/12/29 06:39:50;;;;;;;3.60;2.17;;;9.30;99.90;;;;;;4908388;29;20084;-73
2023/12/29 06:42:16;;;;;;;3.63;2.00;;;9.30;99.90;;;;;;4910188;29;20311;-74
2023/12/29 06:44:42;;;;;;;3.30;2.00;;;9.30;99.90;;;;;;4909257;29;20032;-71
2023/12/29 06:47:07;;;;;;;3.10;1.90;;;9.30;99.90;;;;;;4910040;29;20315;-74
2023/12/29 06:49:36;;;;;;;3.97;1.80;;;9.40;99.90;;;;;;4908728;29;20322;-72
2023/12/29 06:52:02;;;;;;;3.72;1.75;;;9.40;99.90;;;;;;4909285;29;20145;-72
2023/12/29 06:54:28;;;;;;;4.03;1.80;;;9.30;99.90;;;;;;4909810;29;20307;-73
2023/12/29 06:56:54;;;;;;;4.20;1.77;;;9.30;99.90;;;;;;4908091;29;20033;-73
2023/12/29 06:59:19;;;;;;;3.10;1.70;;;9.30;99.90;;;;;;4909928;29;20076;-73
2023/12/29 07:01:49;;;;;;;2.85;1.80;;;9.40;99.90;;;;;;4909050;29;20020;-72
2023/12/29 07:04:15;;;;;;;4.10;1.83;;;9.40;99.90;;;;;;4896078;29;20044;-74
2023/12/29 07:06:41;;;;;;;2.50;1.40;;;9.50;99.90;;;;;;4890319;29;20299;-72
2023/12/29 07:09:08;;;;;;;3.65;1.52;;;9.60;99.90;;;;;;4890748;29;20362;-73
2023/12/29 07:11:34;;;;;;;2.55;1.50;;;9.70;99.90;;;;;;4890596;29;20041;-72
2023/12/29 07:14:00;;;;;;;3.67;1.70;;;9.70;99.90;;;;;;4890150;29;20032;-72
2023/12/29 07:16:26;;;;;;;3.10;1.55;;;9.70;99.90;;;;;;4889539;29;20282;-72
2023/12/29 07:18:52;;;;;;;3.13;1.48;;;9.80;99.90;;;;;;4889873;29;20029;-74
2023/12/29 07:21:21;;;;;;;3.40;1.92;;;9.80;99.90;;;;;;4890583;29;20025;-71
2023/12/29 07:23:46;;;;;;;3.08;1.90;;;9.90;99.90;;;;;;4889931;29;20065;-72
2023/12/29 07:26:12;;;;;;;3.67;1.65;;;9.90;99.90;;;;;;4890337;29;20037;-73
2023/12/29 07:28:38;;;;;;;2.63;1.40;;;9.80;99.90;;;;;;4890050;29;20044;-76
2023/12/29 07:31:04;;;;;;;3.53;1.70;;;9.80;99.90;;;;;;4889846;29;20116;-74
2023/12/29 07:33:30;;;;;;;2.28;1.45;;;9.80;99.90;;;;;;4890126;29;20037;-72
2023/12/29 07:35:56;;;;;;;2.35;1.30;;;9.70;99.90;;;;;;4889756;29;20028;-72
2023/12/29 07:38:21;;;;;;;3.00;1.48;;;9.70;99.90;;;;;;4889507;29;20033;-73
2023/12/29 07:40:47;;;;;;;2.40;1.48;;;9.60;99.90;;;;;;4888571;29;20037;-74
2023/12/29 07:43:13;;;;;;;4.90;1.60;;;9.60;99.90;;;;;;4890012;29;20028;-72
2023/12/29 07:45:40;;;;;;;3.80;1.60;;;9.70;99.90;;;;;;4889855;29;20033;-72
2023/12/29 07:48:06;;;;;;;3.13;1.65;;;9.70;99.90;;;;;;4889956;29;20037;-72
2023/12/29 07:50:32;;;;;;;2.65;1.42;;;9.70;99.90;;;;;;4890218;29;20051;-73
2023/12/29 07:53:00;;;;;;;3.10;1.77;;;9.80;99.90;;;;;;4873101;29;20041;-73
2023/12/29 07:55:26;;;;;;;4.55;1.60;;;9.80;99.90;;;;;;4890011;29;20040;-73
2023/12/29 07:57:52;;;;;;;2.67;1.40;;;9.90;99.90;;;;;;4889299;29;20032;-72
2023/12/29 08:00:18;;;;;;;2.60;1.33;;;9.90;99.90;;;;;;4888968;29;20037;-72
2023/12/29 08:02:44;;;;;;;2.25;1.25;;;10.00;99.90;;;;;;4889598;29;20055;-74
2023/12/29 08:05:10;;;;;;;2.50;1.35;;;10.00;99.90;;;;;;4907467;29;20300;-72
2023/12/29 08:07:37;;;;;;;2.78;1.40;;;10.10;99.90;;;;;;4907397;29;20080;-72
2023/12/29 08:10:07;;;;;;;3.00;1.40;;;10.20;99.90;;;;;;4907483;29;20060;-70
2023/12/29 08:12:33;;;;;;;3.05;1.42;;;10.20;99.90;;;;;;4908281;29;20263;-73
2023/12/29 08:15:00;;;;;;;2.50;1.27;;;10.30;99.90;;;;;;4907461;29;20048;-71
2023/12/29 08:17:27;;;;;;;2.75;1.30;;;10.30;99.90;;;;;;4891661;29;20035;-73
2023/12/29 08:19:52;;;;;;;2.92;1.40;;;10.30;99.90;;;;;;4907539;29;20088;-75
2023/12/29 08:22:19;;;;;;;3.40;1.60;;;10.30;99.90;;;;;;4908041;29;20029;-73
2023/12/29 08:24:45;;;;;;;2.85;1.45;;;10.30;99.90;;;;;;4906540;29;20113;-75
2023/12/29 08:27:13;;;;;;;2.33;1.38;;;10.40;99.90;;;;;;4907885;29;20024;-73
2023/12/29 08:29:38;;;;;;;3.15;1.35;;;10.40;99.90;;;;;;4907687;29;20163;-72
2023/12/29 08:32:05;;;;;;;2.70;1.40;;;10.40;99.90;;;;;;4907222;29;20299;-74
2023/12/29 08:34:30;;;;;;;3.17;1.52;;;10.40;99.90;;;;;;4907151;29;20252;-71
2023/12/29 08:36:56;;;;;;;2.50;1.40;;;10.50;99.90;;;;;;4907559;29;20131;-75
2023/12/29 08:39:23;;;;;;;3.83;1.45;;;10.50;99.90;;;;;;4908101;29;20036;-73
2023/12/29 08:41:51;;;;;;;3.60;1.75;;;10.50;99.90;;;;;;4907186;29;20033;-73
2023/12/29 08:44:17;;;;;;;;;;;10.50;99.90;;;;;;4908165;29;20076;-72
2023/12/29 08:47:41;;;;;;;2.92;1.67;;;10.50;99.90;;;;;;5120283;27;21003;-72
2023/12/29 08:50:07;;;;;;;4.40;1.75;;;10.50;99.90;;;;;;5120095;28;20122;-72
2023/12/29 08:52:34;;;;;;;3.72;1.45;;;10.50;99.90;;;;;;5059298;27;20048;-73
2023/12/29 08:54:59;;;;;;;2.95;1.50;;;10.60;99.90;;;;;;5059222;28;20027;-74
2023/12/29 08:57:25;;;;;;;4.30;1.80;;;10.60;99.90;;;;;;5059341;28;20053;-72
2023/12/29 08:59:51;;;;;;;2.95;1.38;;;10.60;99.90;;;;;;5058571;28;20075;-72
2023/12/29 09:02:16;;;;;;;3.20;1.52;;;10.60;99.90;;;;;;5059575;28;20068;-71
2023/12/29 09:04:42;;;;;;;4.18;1.50;;;10.60;99.90;;;;;;5074267;28;20021;-74
2023/12/29 09:07:08;;;;;;;3.08;1.55;;;10.60;99.90;;;;;;5059338;28;20319;-71
2023/12/29 09:09:33;;;;;;;3.15;1.73;;;10.60;99.90;;;;;;5059349;28;20052;-72
2023/12/29 09:11:59;;;;;;;3.85;1.60;;;10.60;99.90;;;;;;5058400;28;20040;-72
2023/12/29 09:14:25;;;;;;;3.17;1.48;;;10.60;99.90;;;;;;5059017;28;20025;-72
2023/12/29 09:16:50;;;;;;;2.95;1.48;;;10.70;99.90;;;;;;5074149;28;20025;-72
2023/12/29 09:19:16;;;;;;;2.75;1.40;;;10.70;99.90;;;;;;5059220;28;20028;-75
2023/12/29 09:21:42;;;;;;;3.15;1.40;;;10.80;99.90;;;;;;5058790;28;20307;-74
2023/12/29 09:24:08;;;;;;;2.22;1.15;;;10.80;99.90;;;;;;5059047;28;20032;-73
2023/12/29 09:26:33;;;;;;;2.63;1.15;;;10.90;99.90;;;;;;5058545;28;20211;-73
2023/12/29 09:28:59;;;;;;;2.78;1.20;;;10.90;99.90;;;;;;5057867;28;20097;-72
2023/12/29 09:31:25;;;;;;;2.78;1.02;;;11.10;99.90;;;;;;5058979;28;20020;-71
2023/12/29 09:33:50;;;;;;;2.47;0.95;;;11.20;99.90;;;;;;5058216;28;20228;-72
2023/12/29 09:36:16;;;;;;;2.85;1.23;;;11.40;99.90;;;;;;5057675;28;20367;-72
2023/12/29 09:38:45;;;;;;;1.80;0.85;;;11.60;99.90;;;;;;5058526;28;20296;-74
2023/12/29 09:41:15;;;;;;;2.33;1.10;;;11.70;99.90;;;;;;5058812;28;20099;-72
2023/12/29 09:43:42;;;;;;;2.80;1.40;;;11.70;99.90;;;;;;5058496;28;20059;-72
2023/12/29 09:46:09;;;;;;;2.35;1.08;;;11.70;99.90;;;;;;5040413;28;20223;-72
2023/12/29 09:48:36;;;;;;;3.10;1.50;;;11.60;99.90;;;;;;5057437;28;20032;-73
2023/12/29 09:51:07;;;;;;;2.58;1.10;;;11.50;99.90;;;;;;5057942;28;20069;-74
2023/12/29 09:53:36;;;;;;;2.47;1.20;;;11.40;99.90;;;;;;5058338;28;20041;-72
2023/12/29 09:56:04;;;;;;;3.28;1.45;;;11.40;99.90;;;;;;5057772;28;20049;-73
2023/12/29 09:58:30;;;;;;;2.47;0.70;;;11.30;99.90;;;;;;5047935;28;20037;-72
2023/12/29 10:00:57;;;;;;;1.65;0.80;;;11.40;99.90;;;;;;5043486;28;20260;-73
2023/12/29 10:03:22;;;;;;;1.70;1.00;;;11.50;99.90;;;;;;5043835;28;20316;-72
2023/12/29 10:05:57;;;;;;;1.52;0.65;;;11.50;99.90;;;;;;5043231;28;20087;-72
2023/12/29 10:08:23;;;;;;;1.92;0.95;;;11.50;99.90;;;;;;5045115;28;20101;-74
2023/12/29 10:10:50;;;;;;;2.95;1.00;;;11.60;99.90;;;;;;5044219;28;20030;-74
2023/12/29 10:13:18;;;;;;;3.13;1.02;;;11.60;99.90;;;;;;5044641;28;20181;-71
2023/12/29 10:16:06;;;;;;;2.72;0.90;;;11.70;99.90;;;;;;5043136;28;20104;-74
2023/12/29 10:18:57;;;;;;;2.67;0.80;;;11.70;99.90;;;;;;5044880;28;20049;-72
2023/12/29 10:21:28;;;;;;;1.80;0.95;;;11.90;99.90;;;;;;5044817;28;20092;-72
2023/12/29 10:24:10;;;;;;;3.08;0.80;;;12.00;99.90;;;;;;5044104;28;20037;-72
2023/12/29 10:26:36;;;;;;;2.35;1.00;;;12.10;99.90;;;;;;5044092;28;20037;-74
2023/12/29 10:29:02;;;;;;;1.90;0.88;;;12.20;99.90;;;;;;5043708;28;20033;-73
2023/12/29 10:31:28;;;;;;;1.35;0.65;;;12.20;99.90;;;;;;5044276;28;20017;-74
2023/12/29 10:34:20;;;;;;;2.55;0.80;;;12.10;99.90;;;;;;5043935;28;20036;-73
2023/12/29 10:36:48;;;;;;;2.25;0.90;;;12.10;99.90;;;;;;5025880;28;20044;-74
2023/12/29 10:39:15;;;;;;;2.70;1.23;;;12.20;99.90;;;;;;5043259;28;20267;-73
2023/12/29 10:41:41;;;;;;;1.52;0.80;;;12.30;99.90;;;;;;5043256;28;20033;-72
2023/12/29 10:44:07;;;;;;;1.17;0.55;;;12.50;99.90;;;;;;5043425;28;20186;-74
2023/12/29 10:46:33;;;;;;;2.92;0.80;;;12.60;99.90;;;;;;5044026;28;20101;-72
2023/12/29 10:49:09;;;;;;;3.65;0.80;;;12.70;99.90;;;;;;5042466;28;20299;-73
2023/12/29 10:51:37;;;;;;;2.13;0.50;;;12.80;99.90;;;;;;5043758;28;20216;-74
2023/12/29 10:54:03;;;;;;;1.65;0.50;;;13.00;99.90;;;;;;5042116;28;20040;-72
2023/12/29 10:56:32;;;;;;;1.88;0.70;;;13.20;99.90;;;;;;5044036;28;20017;-71
2023/12/29 10:59:03;;;;;;;1.15;0.40;;;13.40;99.90;;;;;;5043088;28;20140;-72
2023/12/29 11:01:34;;;;;;;1.48;0.50;;;13.50;99.50;;;;;;5043565;28;20225;-74
2023/12/29 11:04:01;;;;;;;2.28;0.85;;;13.70;99.20;;;;;;5043325;28;20034;-73
2023/12/29 11:06:28;;;;;;;1.30;0.70;;;13.90;98.90;;;;;;5043823;28;20041;-74
2023/12/29 11:08:55;;;;;;;1.65;0.60;;;14.00;98.30;;;;;;5042601;28;20307;-71
2023/12/29 11:11:21;;;;;;;1.17;0.50;;;14.10;97.70;;;;;;5043696;28;20108;-72
2023/12/29 11:13:48;;;;;;;1.73;0.75;;;14.30;97.10;;;;;;5043183;28;20053;-72
2023/12/29 11:16:17;;;;;;;1.85;0.60;;;14.60;97.10;;;;;;5043561;28;20032;-72
2023/12/29 11:18:44;;;;;;;1.83;0.50;;;14.60;96.40;;;;;;5043659;28;20025;-73
2023/12/29 11:21:11;;;;;;;2.30;0.70;;;14.90;96.10;;;;;;5043630;28;20092;-74
2023/12/29 11:23:36;;;;;;;2.08;0.60;;;15.00;96.40;;;;;;5043738;28;20091;-72
2023/12/29 11:26:03;;;;;;;1.08;0.40;;;15.00;95.00;;;;;;5043014;28;20311;-71
2023/12/29 11:28:29;;;;;;;1.10;0.50;;;15.00;95.00;;;;;;5043634;28;20041;-75
2023/12/29 11:30:55;;;;;;;1.20;0.50;;;15.00;95.10;;;;;;5041813;28;20029;-72
2023/12/29 11:33:31;;;;;;;1.75;0.63;;;15.10;94.60;;;;;;5043556;28;20057;-74
2023/12/29 11:36:20;;;;;;;1.75;0.65;;;15.00;94.80;;;;;;5043010;28;20108;-73
2023/12/29 11:39:18;;;;;;;1.48;0.57;;;15.00;94.60;;;;;;5041766;28;20033;-74
2023/12/29 11:41:52;;;;;;;1.58;0.63;;;14.60;95.10;;;;;;5034219;28;20331;-75
2023/12/29 11:44:29;;;;;;;1.63;0.73;;;14.40;95.50;;;;;;5043150;28;20048;-75
2023/12/29 11:46:57;;;;;;;1.65;0.70;;;14.20;95.60;;;;;;5042470;28;20121;-72
2023/12/29 11:49:23;;;;;;;1.90;0.70;;;14.10;95.60;;;;;;5042903;28;20221;-73
2023/12/29 11:51:50;;;;;;;1.35;0.60;;;13.90;95.40;;;;;;5042444;28;20033;-72
2023/12/29 11:54:23;;;;;;;1.95;0.60;;;13.90;95.70;;;;;;5042724;28;20084;-71
2023/12/29 11:56:50;;;;;;;1.75;0.70;;;13.80;95.00;;;;;;5042523;28;20097;-74
2023/12/29 11:59:27;;;;;;;1.98;0.60;;;13.90;95.10;;;;;;5043149;28;20041;-74
2023/12/29 12:01:58;;;;;;;1.50;0.50;;;14.00;94.90;;;;;;5042335;28;20041;-71
2023/12/29 12:04:41;;;;;;;2.50;0.63;;;14.30;94.30;;;;;;5043079;28;20033;-73
2023/12/29 12:07:16;;;;;;;0.90;0.40;;;14.90;93.40;;;;;;5042053;28;20041;-72
2023/12/29 12:09:41;;;;;;;1.67;0.80;;;15.30;92.80;;;;;;5041865;28;20049;-72
2023/12/29 12:12:07;;;;;;;1.38;0.63;;;15.70;93.00;;;;;;5042234;28;20034;-75
2023/12/29 12:14:47;;;;;;;1.90;0.60;;;16.40;91.50;;;;;;5042797;28;20033;-72
2023/12/29 12:17:26;;;;;;;1.50;0.70;;;17.00;90.70;;;;;;5042873;28;20029;-75
2023/12/29 12:19:56;;;;;;;1.85;0.90;;;17.30;89.50;;;;;;5042144;28;20083;-73
2023/12/29 12:22:24;;;;;;;1.73;0.65;;;17.30;88.20;;;;;;5042562;28;20196;-73
2023/12/29 12:24:57;;;;;;;1.52;0.60;;;16.80;88.10;;;;;;5041725;28;20060;-73
2023/12/29 12:27:25;;;;;;;1.75;0.70;;;16.60;89.10;;;;;;5042663;28;20045;-73
2023/12/29 12:29:57;;;;;;;2.00;0.57;;;17.00;88.90;;;;;;5040821;28;20044;-73
2023/12/29 12:32:23;;;;;;;1.40;0.50;;;17.00;87.80;;;;;;5042387;28;20308;-73
2023/12/29 12:34:49;;;;;;;2.45;0.73;;;16.70;87.30;;;;;;5041535;28;20171;-74
2023/12/29 12:37:23;;;;;;;1.63;0.70;;;16.10;88.50;;;;;;5042551;28;20033;-74
2023/12/29 12:39:49;;;;;;;1.95;0.70;;;15.60;90.20;;;;;;5041896;28;20033;-72
2023/12/29 12:42:17;;;;;;;1.40;0.60;;;15.50;90.40;;;;;;5042495;28;20056;-75
2023/12/29 12:44:50;;;;;;;2.28;1.00;;;15.80;90.00;;;;;;5041344;28;20351;-72
2023/12/29 12:47:23;;;;;;;2.03;0.73;;;16.00;89.80;;;;;;5042483;28;20057;-73
2023/12/29 12:49:49;;;;;;;2.53;0.70;;;15.90;88.80;;;;;;5041548;28;20033;-74
2023/12/29 12:52:15;;;;;;;1.90;0.60;;;15.40;90.10;;;;;;5042138;28;20021;-74